Terminal Aerodrome Forecast
Issued by NWS Jackson, KY

Home | Current Version | Previous Version | Text Only | Print | Product List | Glossary On
Versions: 1 2 3 4 5 6 7 8 9 10 11 12 13 14 15 16 17 18 19 20 21 22
000
FTUS43 KJKL 261723
TAFJKL
TAF
KJKL 261723Z 2618/2718 24006KT P6SM SCT050
     FM270200 VRB03KT 3SM -TSRA BR BKN050CB
     FM270500 VRB03KT 6SM SHRA BR BKN035
     FM270800 VRB03KT P6SM BKN030
     FM271500 22005KT P6SM BKN035=

USA.gov is the U.S. government's official web portal to all federal, state and local government web resources and services.